createdAt,value
2017-05-29T00:00:30.432Z,0
2017-05-29T00:01:29.798Z,0
2017-05-29T00:02:29.476Z,0
2017-05-29T00:03:30.099Z,0
2017-05-29T00:04:29.782Z,0
2017-05-29T00:05:30.402Z,0
2017-05-29T00:06:29.760Z,0
2017-05-29T00:07:30.071Z,0
2017-05-29T00:08:29.756Z,0
2017-05-29T00:09:30.060Z,0
2017-05-29T00:10:30.612Z,0
2017-05-29T00:11:30.051Z,0
2017-05-29T00:12:29.716Z,0
2017-05-29T00:13:30.349Z,0
2017-05-29T00:14:29.706Z,0
2017-05-29T00:15:29.690Z,0
2017-05-29T00:16:30.005Z,0
2017-05-29T00:17:29.994Z,0
2017-05-29T00:18:30.041Z,0
2017-05-29T00:19:29.979Z,0
2017-05-29T00:20:29.971Z,0
2017-05-29T00:21:29.966Z,0
2017-05-29T00:22:29.951Z,0
2017-05-29T00:23:29.639Z,0
2017-05-29T00:24:29.629Z,0
2017-05-29T00:25:29.301Z,0
2017-05-29T00:26:29.612Z,0
2017-05-29T00:27:29.925Z,0
2017-05-29T00:28:29.918Z,0
2017-05-29T00:29:29.596Z,0
2017-05-29T00:30:30.215Z,0
2017-05-29T00:31:30.204Z,0
2017-05-29T00:32:29.878Z,0
2017-05-29T00:33:30.192Z,0
2017-05-29T00:34:29.869Z,0
2017-05-29T00:35:29.856Z,0
2017-05-29T00:36:29.541Z,0
2017-05-29T00:37:30.215Z,0
2017-05-29T00:38:29.533Z,0
2017-05-29T00:39:29.841Z,0
2017-05-29T00:40:29.550Z,0
2017-05-29T00:41:29.494Z,0
2017-05-29T00:42:29.489Z,0
2017-05-29T00:43:29.786Z,0
2017-05-29T00:44:30.100Z,0
2017-05-29T00:45:29.772Z,0
2017-05-29T00:46:29.453Z,0
2017-05-29T00:47:29.757Z,0
2017-05-29T00:48:30.087Z,0
2017-05-29T00:49:29.747Z,0
2017-05-29T00:50:29.737Z,0
2017-05-29T00:51:29.421Z,0
2017-05-29T00:52:30.042Z,0
2017-05-29T00:53:29.723Z,0
2017-05-29T00:54:29.723Z,0
2017-05-29T00:55:29.697Z,0
2017-05-29T00:56:29.374Z,0
2017-05-29T00:57:29.372Z,0
2017-05-29T00:58:29.673Z,0
2017-05-29T00:59:29.681Z,0
2017-05-29T01:00:29.657Z,0
2017-05-29T01:01:29.331Z,0
2017-05-29T01:02:29.954Z,0
2017-05-29T01:03:29.634Z,0
2017-05-29T01:04:29.323Z,0
2017-05-29T01:05:29.614Z,0
2017-05-29T01:06:29.291Z,0
2017-05-29T01:07:29.607Z,0
2017-05-29T01:08:29.586Z,0
2017-05-29T01:09:29.588Z,0
2017-05-29T01:10:29.262Z,0
2017-05-29T01:11:29.568Z,0
2017-05-29T01:12:28.934Z,0
2017-05-29T01:13:29.559Z,0
2017-05-29T01:14:29.755Z,0
2017-05-29T01:15:29.847Z,0
2017-05-29T01:16:29.534Z,0
2017-05-29T01:17:29.542Z,0
2017-05-29T01:18:29.553Z,0
2017-05-29T01:19:29.822Z,0
2017-05-29T01:20:29.183Z,0
2017-05-29T01:21:29.826Z,0
2017-05-29T01:22:29.787Z,0
2017-05-29T01:23:29.469Z,0
2017-05-29T01:24:29.466Z,0
2017-05-29T01:25:28.822Z,0
2017-05-29T01:26:29.127Z,0
2017-05-29T01:27:29.446Z,0
2017-05-29T01:28:29.118Z,0
2017-05-29T01:29:29.422Z,0
2017-05-29T01:30:29.100Z,0
2017-05-29T01:31:29.724Z,0
2017-05-29T01:32:29.397Z,0
2017-05-29T01:33:29.392Z,0
2017-05-29T01:34:29.398Z,0
2017-05-29T01:35:28.746Z,0
2017-05-29T01:36:29.070Z,0
2017-05-29T01:37:29.361Z,0
2017-05-29T01:38:29.663Z,0
2017-05-29T01:39:28.712Z,0
2017-05-29T01:40:29.016Z,0
2017-05-29T01:41:29.325Z,0
2017-05-29T01:42:29.002Z,0
2017-05-29T01:43:29.314Z,0
2017-05-29T01:44:29.352Z,0
2017-05-29T01:45:29.285Z,0
2017-05-29T01:46:28.970Z,0
2017-05-29T01:47:29.586Z,0
2017-05-29T01:48:29.586Z,0
2017-05-29T01:49:29.263Z,0
2017-05-29T01:50:29.245Z,0
2017-05-29T01:51:28.931Z,0
2017-05-29T01:52:29.235Z,0
2017-05-29T01:53:29.246Z,0
2017-05-29T01:54:28.955Z,0
2017-05-29T01:55:28.932Z,0
2017-05-29T01:56:28.886Z,0
2017-05-29T01:57:28.873Z,0
2017-05-29T01:58:28.873Z,0
2017-05-29T01:59:29.487Z,0
2017-05-29T02:00:29.480Z,0
2017-05-29T02:01:29.152Z,0
2017-05-29T02:02:29.463Z,0
2017-05-29T02:03:28.542Z,0
2017-05-29T02:04:29.450Z,0
2017-05-29T02:05:28.811Z,0
2017-05-29T02:06:29.111Z,0
2017-05-29T02:07:29.103Z,0
2017-05-29T02:08:29.101Z,0
2017-05-29T02:09:29.135Z,0
2017-05-29T02:10:29.280Z,0
2017-05-29T02:11:29.380Z,0
2017-05-29T02:12:29.073Z,0
2017-05-29T02:13:28.738Z,0
2017-05-29T02:14:28.732Z,0
2017-05-29T02:15:29.353Z,0
2017-05-29T02:16:29.340Z,0
2017-05-29T02:17:28.704Z,0
2017-05-29T02:18:28.381Z,0
2017-05-29T02:19:29.005Z,0
2017-05-29T02:20:29.302Z,0
2017-05-29T02:21:29.299Z,0
2017-05-29T02:22:29.291Z,0
2017-05-29T02:23:28.345Z,0
2017-05-29T02:24:28.653Z,0
2017-05-29T02:25:28.952Z,0
2017-05-29T02:26:28.627Z,0
2017-05-29T02:27:28.934Z,0
2017-05-29T02:28:28.617Z,0
2017-05-29T02:29:28.919Z,0
2017-05-29T02:30:28.279Z,0
2017-05-29T02:31:28.904Z,0
2017-05-29T02:32:28.573Z,0
2017-05-29T02:33:29.200Z,0
2017-05-29T02:34:28.880Z,0
2017-05-29T02:35:28.547Z,0
2017-05-29T02:36:28.547Z,0
2017-05-29T02:37:28.846Z,0
2017-05-29T02:38:28.843Z,0
2017-05-29T02:39:28.833Z,0
2017-05-29T02:40:28.507Z,0
2017-05-29T02:41:28.499Z,0
2017-05-29T02:42:28.803Z,0
2017-05-29T02:43:28.489Z,0
2017-05-29T02:44:28.788Z,4
2017-05-29T02:45:28.460Z,4
2017-05-29T02:46:28.462Z,0
2017-05-29T02:47:28.504Z,0
2017-05-29T02:48:28.442Z,4
2017-05-29T02:49:28.752Z,4
2017-05-29T02:50:29.057Z,0
2017-05-29T02:51:29.037Z,4
2017-05-29T02:52:28.409Z,4
2017-05-29T02:53:28.474Z,4
2017-05-29T02:54:29.016Z,4
2017-05-29T02:55:28.450Z,8
2017-05-29T02:56:29.007Z,8
2017-05-29T02:57:28.680Z,8
2017-05-29T02:58:28.987Z,8
2017-05-29T02:59:29.033Z,12
2017-05-29T03:00:28.651Z,12
2017-05-29T03:01:28.648Z,16
2017-05-29T03:02:28.328Z,12
2017-05-29T03:03:28.944Z,16
2017-05-29T03:04:28.622Z,20
2017-05-29T03:05:28.351Z,20
2017-05-29T03:06:28.606Z,24
2017-05-29T03:07:27.977Z,28
2017-05-29T03:08:28.307Z,28
2017-05-29T03:09:28.571Z,32
2017-05-29T03:10:28.251Z,36
2017-05-29T03:11:28.874Z,40
2017-05-29T03:12:28.567Z,44
2017-05-29T03:13:28.224Z,48
2017-05-29T03:14:28.215Z,52
2017-05-29T03:15:28.835Z,56
2017-05-29T03:16:28.522Z,60
2017-05-29T03:17:28.507Z,68
2017-05-29T03:18:27.867Z,72
2017-05-29T03:19:28.171Z,76
2017-05-29T03:20:28.166Z,80
2017-05-29T03:21:28.471Z,88
2017-05-29T03:22:28.461Z,104
2017-05-29T03:23:28.141Z,112
2017-05-29T03:24:28.138Z,120
2017-05-29T03:25:28.439Z,136
2017-05-29T03:26:28.430Z,148
2017-05-29T03:27:27.792Z,160
2017-05-29T03:28:28.432Z,172
2017-05-29T03:29:27.782Z,188
2017-05-29T03:30:28.086Z,196
2017-05-29T03:31:28.089Z,208
2017-05-29T03:32:27.754Z,224
2017-05-29T03:33:28.373Z,236
2017-05-29T03:34:28.049Z,248
2017-05-29T03:35:27.725Z,252
2017-05-29T03:36:28.341Z,264
2017-05-29T03:37:28.651Z,272
2017-05-29T03:38:28.326Z,276
2017-05-29T03:39:28.638Z,288
2017-05-29T03:40:27.992Z,296
2017-05-29T03:41:28.296Z,304
2017-05-29T03:42:27.981Z,316
2017-05-29T03:43:28.600Z,328
2017-05-29T03:44:28.272Z,344
2017-05-29T03:45:28.267Z,360
2017-05-29T03:46:28.254Z,376
2017-05-29T03:47:28.251Z,392
2017-05-29T03:48:28.244Z,416
2017-05-29T03:49:27.921Z,444
2017-05-29T03:50:27.919Z,468
2017-05-29T03:51:28.219Z,496
2017-05-29T03:52:28.530Z,532
2017-05-29T03:53:28.522Z,568
2017-05-29T03:54:28.507Z,616
2017-05-29T03:55:28.184Z,660
2017-05-29T03:56:27.860Z,704
2017-05-29T03:57:28.483Z,740
2017-05-29T03:58:28.163Z,772
2017-05-29T03:59:28.154Z,800
2017-05-29T04:00:28.138Z,832
2017-05-29T04:01:27.819Z,864
2017-05-29T04:02:28.129Z,896
2017-05-29T04:03:27.804Z,924
2017-05-29T04:04:27.794Z,948
2017-05-29T04:05:28.406Z,976
2017-05-29T04:06:27.456Z,992
2017-05-29T04:07:28.080Z,1000
2017-05-29T04:08:28.081Z,1012
2017-05-29T04:09:28.059Z,1028
2017-05-29T04:10:28.453Z,1040
2017-05-29T04:11:28.038Z,1060
2017-05-29T04:12:27.722Z,1084
2017-05-29T04:13:27.403Z,1116
2017-05-29T04:14:28.014Z,1144
2017-05-29T04:15:28.006Z,1176
2017-05-29T04:16:28.048Z,1212
2017-05-29T04:17:27.692Z,1244
2017-05-29T04:18:27.985Z,1272
2017-05-29T04:19:27.981Z,1304
2017-05-29T04:20:27.649Z,1340
2017-05-29T04:21:28.280Z,1372
2017-05-29T04:22:27.949Z,1404
2017-05-29T04:23:27.939Z,1440
2017-05-29T04:24:27.623Z,1472
2017-05-29T04:25:27.614Z,1500
2017-05-29T04:26:28.282Z,1532
2017-05-29T04:27:27.593Z,1560
2017-05-29T04:28:27.907Z,1584
2017-05-29T04:29:27.586Z,1612
2017-05-29T04:30:28.204Z,1632
2017-05-29T04:31:28.189Z,1664
2017-05-29T04:32:27.552Z,1688
2017-05-29T04:33:27.862Z,1724
2017-05-29T04:34:27.852Z,1760
2017-05-29T04:35:27.846Z,1796
2017-05-29T04:36:27.215Z,1824
2017-05-29T04:37:27.513Z,1852
2017-05-29T04:38:28.134Z,1876
2017-05-29T04:39:27.816Z,1896
2017-05-29T04:40:27.481Z,1928
2017-05-29T04:41:27.470Z,1956
2017-05-29T04:42:27.465Z,1980
2017-05-29T04:43:27.774Z,2000
2017-05-29T04:44:27.768Z,2024
2017-05-29T04:45:28.092Z,2036
2017-05-29T04:46:27.437Z,2048
2017-05-29T04:47:27.736Z,2048
2017-05-29T04:48:27.737Z,2052
2017-05-29T04:49:27.728Z,2060
2017-05-29T04:50:28.035Z,2072
2017-05-29T04:51:27.711Z,2076
2017-05-29T04:52:28.015Z,2064
2017-05-29T04:53:27.691Z,2076
2017-05-29T04:54:27.987Z,2084
2017-05-29T04:55:27.360Z,2100
2017-05-29T04:56:27.348Z,2152
2017-05-29T04:57:27.337Z,2180
2017-05-29T04:58:27.651Z,2196
2017-05-29T04:59:27.639Z,2204
2017-05-29T05:00:27.329Z,2224
2017-05-29T05:01:27.631Z,2240
2017-05-29T05:02:27.303Z,2252
2017-05-29T05:03:27.610Z,2264
2017-05-29T05:04:27.910Z,2288
2017-05-29T05:05:27.585Z,2304
2017-05-29T05:06:27.578Z,2292
2017-05-29T05:07:26.941Z,2304
2017-05-29T05:08:27.250Z,2324
2017-05-29T05:09:27.246Z,2376
2017-05-29T05:10:27.554Z,2400
2017-05-29T05:11:27.227Z,2420
2017-05-29T05:12:27.214Z,2440
2017-05-29T05:13:27.838Z,2464
2017-05-29T05:14:27.204Z,2496
2017-05-29T05:15:27.507Z,2536
2017-05-29T05:16:26.875Z,2584
2017-05-29T05:17:27.491Z,2636
2017-05-29T05:18:27.494Z,2684
2017-05-29T05:19:27.475Z,2740
2017-05-29T05:20:27.472Z,2804
2017-05-29T05:21:27.462Z,2884
2017-05-29T05:22:27.142Z,2960
2017-05-29T05:23:27.455Z,3028
2017-05-29T05:24:26.829Z,3084
2017-05-29T05:25:27.424Z,3132
2017-05-29T05:26:27.111Z,3180
2017-05-29T05:27:27.144Z,3224
2017-05-29T05:28:27.717Z,3184
2017-05-29T05:29:27.396Z,3280
2017-05-29T05:30:26.753Z,3316
2017-05-29T05:31:27.059Z,3348
2017-05-29T05:32:27.053Z,3384
2017-05-29T05:33:27.370Z,3428
2017-05-29T05:34:27.359Z,3484
2017-05-29T05:35:27.346Z,3524
2017-05-29T05:36:27.336Z,3608
2017-05-29T05:37:27.019Z,3700
2017-05-29T05:38:27.325Z,3752
2017-05-29T05:39:27.317Z,3796
2017-05-29T05:40:26.992Z,3852
2017-05-29T05:41:27.294Z,3900
2017-05-29T05:42:26.981Z,3948
2017-05-29T05:43:27.291Z,3992
2017-05-29T05:44:27.282Z,4044
2017-05-29T05:45:27.578Z,4072
2017-05-29T05:46:26.957Z,4116
2017-05-29T05:47:26.630Z,4164
2017-05-29T05:48:27.585Z,4168
2017-05-29T05:49:27.246Z,4192
2017-05-29T05:50:27.557Z,4232
2017-05-29T05:51:27.539Z,4248
2017-05-29T05:52:27.527Z,4248
2017-05-29T05:53:26.896Z,4248
2017-05-29T05:54:27.514Z,4256
2017-05-29T05:55:26.878Z,4252
2017-05-29T05:56:26.872Z,4264
2017-05-29T05:57:27.181Z,4276
2017-05-29T05:58:26.859Z,4288
2017-05-29T05:59:26.856Z,4296
2017-05-29T06:00:26.852Z,4320
2017-05-29T06:01:26.524Z,4344
2017-05-29T06:02:26.510Z,4356
2017-05-29T06:03:27.445Z,4368
2017-05-29T06:04:27.134Z,4384
2017-05-29T06:05:27.437Z,4424
2017-05-29T06:06:26.800Z,4580
2017-05-29T06:07:27.104Z,5924
2017-05-29T06:08:26.783Z,8464
2017-05-29T06:09:27.090Z,9472
2017-05-29T06:10:27.174Z,9216
2017-05-29T06:11:26.451Z,8976
2017-05-29T06:12:27.077Z,8580
2017-05-29T06:13:26.747Z,8544
2017-05-29T06:14:27.057Z,7136
2017-05-29T06:15:26.741Z,8484
2017-05-29T06:16:27.047Z,6360
2017-05-29T06:17:27.034Z,5128
2017-05-29T06:18:26.719Z,4668
2017-05-29T06:19:26.716Z,4592
2017-05-29T06:20:27.016Z,4572
2017-05-29T06:21:27.016Z,4584
2017-05-29T06:22:27.333Z,4608
2017-05-29T06:23:26.689Z,4616
2017-05-29T06:24:27.001Z,4676
2017-05-29T06:25:26.680Z,4696
2017-05-29T06:26:26.359Z,4744
2017-05-29T06:27:27.298Z,4776
2017-05-29T06:28:26.976Z,4824
2017-05-29T06:29:26.653Z,4908
2017-05-29T06:30:26.710Z,4944
2017-05-29T06:31:26.953Z,4960
2017-05-29T06:32:26.948Z,4988
2017-05-29T06:33:26.999Z,5008
2017-05-29T06:34:27.255Z,5012
2017-05-29T06:35:26.619Z,4996
2017-05-29T06:36:26.608Z,5008
2017-05-29T06:37:26.918Z,5040
2017-05-29T06:38:27.229Z,5084
2017-05-29T06:39:27.222Z,5132
2017-05-29T06:40:26.274Z,5172
2017-05-29T06:41:26.901Z,5196
2017-05-29T06:42:26.579Z,5224
2017-05-29T06:43:26.886Z,5256
2017-05-29T06:44:26.562Z,5284
2017-05-29T06:45:26.561Z,5356
2017-05-29T06:46:26.235Z,5476
2017-05-29T06:47:26.859Z,5748
2017-05-29T06:48:26.560Z,5972
2017-05-29T06:49:26.531Z,6104
2017-05-29T06:50:26.895Z,5972
2017-05-29T06:51:26.518Z,5792
2017-05-29T06:52:26.515Z,5796
2017-05-29T06:53:26.513Z,5780
2017-05-29T06:54:26.821Z,5684
2017-05-29T06:55:26.810Z,5544
2017-05-29T06:56:26.811Z,5460
2017-05-29T06:57:27.109Z,5428
2017-05-29T06:58:27.111Z,5400
2017-05-29T06:59:27.114Z,5392
2017-05-29T07:00:26.778Z,5392
2017-05-29T07:01:26.150Z,5424
2017-05-29T07:02:26.455Z,5500
2017-05-29T07:03:26.143Z,5568
2017-05-29T07:04:26.766Z,5688
2017-05-29T07:05:27.066Z,5796
2017-05-29T07:06:26.436Z,5872
2017-05-29T07:07:26.742Z,5892
2017-05-29T07:08:26.420Z,6012
2017-05-29T07:09:26.729Z,6140
2017-05-29T07:10:27.044Z,6264
2017-05-29T07:11:26.722Z,6336
2017-05-29T07:12:26.726Z,6352
2017-05-29T07:13:26.406Z,6360
2017-05-29T07:14:26.756Z,6408
2017-05-29T07:15:26.386Z,6472
2017-05-29T07:16:26.699Z,6532
2017-05-29T07:17:27.008Z,6580
2017-05-29T07:18:26.698Z,6636
2017-05-29T07:19:26.688Z,6736
2017-05-29T07:20:26.991Z,6832
2017-05-29T07:21:26.667Z,6892
2017-05-29T07:22:26.981Z,7012
2017-05-29T07:23:26.659Z,7192
2017-05-29T07:24:26.342Z,7588
2017-05-29T07:25:26.656Z,10124
2017-05-29T07:26:26.966Z,22464
2017-05-29T07:27:26.639Z,30784
2017-05-29T07:28:26.955Z,30624
2017-05-29T07:29:26.633Z,30656
2017-05-29T07:30:26.934Z,29824
2017-05-29T07:31:26.308Z,30272
2017-05-29T07:32:26.299Z,30624
2017-05-29T07:33:25.983Z,31840
2017-05-29T07:34:26.608Z,31008
2017-05-29T07:35:25.976Z,30848
2017-05-29T07:36:25.998Z,30720
2017-05-29T07:37:26.286Z,33184
2017-05-29T07:38:26.911Z,34688
2017-05-29T07:39:26.282Z,34976
2017-05-29T07:40:26.595Z,37024
2017-05-29T07:41:26.900Z,36992
2017-05-29T07:42:26.269Z,36192
2017-05-29T07:43:26.594Z,33920
2017-05-29T07:44:26.895Z,33856
2017-05-29T07:45:26.578Z,36448
2017-05-29T07:46:26.576Z,38336
2017-05-29T07:47:26.262Z,39488
2017-05-29T07:48:26.574Z,39968
2017-05-29T07:49:26.255Z,40192
2017-05-29T07:50:26.261Z,40608
2017-05-29T07:51:26.575Z,39104
2017-05-29T07:52:26.571Z,39648
2017-05-29T07:53:25.941Z,41792
2017-05-29T07:54:26.574Z,44576
2017-05-29T07:55:26.255Z,45600
2017-05-29T07:56:26.575Z,43968
2017-05-29T07:57:26.881Z,40096
2017-05-29T07:58:26.253Z,24224
2017-05-29T07:59:25.936Z,19872
2017-05-29T08:00:26.248Z,16384
2017-05-29T08:01:26.568Z,24224
2017-05-29T08:02:26.265Z,29408
2017-05-29T08:03:26.253Z,43872
2017-05-29T08:04:26.566Z,40896
2017-05-29T08:05:26.883Z,28288
2017-05-29T08:06:26.564Z,38016
2017-05-29T08:07:26.248Z,32352
2017-05-29T08:08:26.251Z,36896
2017-05-29T08:09:26.889Z,38720
2017-05-29T08:10:26.884Z,41344
2017-05-29T08:11:26.457Z,35392
2017-05-29T08:12:26.564Z,37856
2017-05-29T08:13:26.253Z,42880
2017-05-29T08:14:26.569Z,38848
2017-05-29T08:15:26.566Z,36512
2017-05-29T08:16:26.569Z,33728
2017-05-29T08:17:26.253Z,36864
2017-05-29T08:18:26.572Z,42688
2017-05-29T08:19:26.580Z,47360
2017-05-29T08:20:26.577Z,51200
2017-05-29T08:21:26.575Z,50912
2017-05-29T08:22:26.897Z,49536
2017-05-29T08:23:26.264Z,46560
2017-05-29T08:24:26.579Z,44896
2017-05-29T08:25:26.584Z,47808
2017-05-29T08:26:26.577Z,50720
2017-05-29T08:27:26.579Z,54496
2017-05-29T08:28:26.586Z,57216
2017-05-29T08:29:26.285Z,55616
2017-05-29T08:30:25.958Z,51680
2017-05-29T08:31:25.967Z,48256
2017-05-29T08:32:26.915Z,45856
2017-05-29T08:33:26.279Z,46048
2017-05-29T08:34:26.923Z,48736
2017-05-29T08:35:26.926Z,52960
2017-05-29T08:36:26.597Z,55136
2017-05-29T08:37:26.920Z,54592
2017-05-29T08:38:26.296Z,51968
2017-05-29T08:39:26.322Z,50976
2017-05-29T08:40:26.922Z,50880
2017-05-29T08:41:25.985Z,50944
2017-05-29T08:42:26.306Z,49184
2017-05-29T08:43:25.996Z,48416
2017-05-29T08:44:26.631Z,48288
2017-05-29T08:45:26.937Z,48256
2017-05-29T08:46:26.626Z,47936
2017-05-29T08:47:26.001Z,47424
2017-05-29T08:48:26.948Z,47008
2017-05-29T08:49:26.634Z,48672
2017-05-29T08:50:27.007Z,48480
2017-05-29T08:51:26.652Z,30848
2017-05-29T08:52:26.648Z,26976
2017-05-29T08:53:26.021Z,30304
2017-05-29T08:54:26.340Z,24736
2017-05-29T08:55:26.660Z,18112
2017-05-29T08:56:26.032Z,14456
2017-05-29T08:57:26.662Z,14888
2017-05-29T08:58:26.980Z,21344
2017-05-29T08:59:26.670Z,34272
2017-05-29T09:00:26.354Z,33696
2017-05-29T09:01:26.355Z,27136
2017-05-29T09:02:26.669Z,37952
2017-05-29T09:03:26.044Z,19136
2017-05-29T09:04:26.362Z,21568
2017-05-29T09:05:26.360Z,23904
2017-05-29T09:06:26.372Z,21024
2017-05-29T09:07:26.375Z,20320
2017-05-29T09:08:26.695Z,32256
2017-05-29T09:09:26.688Z,35072
2017-05-29T09:10:27.010Z,43168
2017-05-29T09:11:26.375Z,38656
2017-05-29T09:12:26.698Z,23264
2017-05-29T09:13:27.009Z,14736
2017-05-29T09:14:26.708Z,19040
2017-05-29T09:15:26.126Z,25920
2017-05-29T09:16:26.400Z,41152
2017-05-29T09:17:26.706Z,54272
2017-05-29T09:18:26.711Z,55296
2017-05-29T09:19:26.711Z,60704
2017-05-29T09:20:26.405Z,60896
2017-05-29T09:21:26.395Z,62816
2017-05-29T09:22:26.710Z,65440
2017-05-29T09:23:26.414Z,67648
2017-05-29T09:24:26.406Z,67584
2017-05-29T09:25:26.454Z,65504
2017-05-29T09:26:26.411Z,59200
2017-05-29T09:27:27.081Z,58816
2017-05-29T09:28:26.733Z,57248
2017-05-29T09:29:27.048Z,56416
2017-05-29T09:30:27.052Z,49664
2017-05-29T09:31:26.739Z,60288
2017-05-29T09:32:27.061Z,65344
2017-05-29T09:33:26.755Z,65152
2017-05-29T09:34:26.439Z,66528
2017-05-29T09:35:26.764Z,64736
2017-05-29T09:36:26.457Z,62080
2017-05-29T09:37:26.759Z,60640
2017-05-29T09:38:27.075Z,58528
2017-05-29T09:39:26.782Z,58016
2017-05-29T09:40:26.763Z,50272
2017-05-29T09:41:27.084Z,45984
2017-05-29T09:42:26.146Z,38720
2017-05-29T09:43:27.090Z,31264
2017-05-29T09:44:26.779Z,56928
2017-05-29T09:45:26.789Z,64256
2017-05-29T09:46:26.788Z,68064
2017-05-29T09:47:26.788Z,67776
2017-05-29T09:48:26.474Z,58944
2017-05-29T09:49:26.476Z,63520
2017-05-29T09:50:27.113Z,64288
2017-05-29T09:51:26.170Z,58368
2017-05-29T09:52:26.494Z,64800
2017-05-29T09:53:27.129Z,61632
2017-05-29T09:54:26.809Z,57952
2017-05-29T09:55:26.812Z,58816
2017-05-29T09:56:26.811Z,60672
2017-05-29T09:57:26.504Z,69056
2017-05-29T09:58:26.507Z,75808
2017-05-29T09:59:26.821Z,81664
2017-05-29T10:00:26.828Z,84064
2017-05-29T10:01:26.517Z,82688
2017-05-29T10:02:26.518Z,77664
2017-05-29T10:03:26.521Z,71904
2017-05-29T10:04:26.526Z,68288
2017-05-29T10:05:26.219Z,64128
2017-05-29T10:06:26.537Z,66048
2017-05-29T10:07:26.865Z,66208
2017-05-29T10:08:26.867Z,67424
2017-05-29T10:09:26.863Z,70688
2017-05-29T10:10:26.552Z,76096
2017-05-29T10:11:27.386Z,76768
2017-05-29T10:12:26.560Z,79488
2017-05-29T10:13:26.877Z,78400
2017-05-29T10:14:27.199Z,77216
2017-05-29T10:15:26.886Z,74624
2017-05-29T10:16:26.898Z,72864
2017-05-29T10:17:27.208Z,72832
2017-05-29T10:18:27.214Z,74400
2017-05-29T10:19:26.905Z,75488
2017-05-29T10:20:26.593Z,77184
2017-05-29T10:21:26.920Z,79168
2017-05-29T10:22:26.919Z,80960
2017-05-29T10:23:26.608Z,73920
2017-05-29T10:24:27.239Z,77792
2017-05-29T10:25:26.612Z,76608
2017-05-29T10:26:27.250Z,75424
2017-05-29T10:27:26.939Z,75488
2017-05-29T10:28:26.633Z,75872
2017-05-29T10:29:27.275Z,76736
2017-05-29T10:30:26.978Z,78528
2017-05-29T10:31:26.961Z,78240
2017-05-29T10:32:26.646Z,76768
2017-05-29T10:33:26.648Z,74848
2017-05-29T10:34:26.341Z,71424
2017-05-29T10:35:26.977Z,68736
2017-05-29T10:36:26.986Z,67392
2017-05-29T10:37:27.306Z,66656
2017-05-29T10:38:26.373Z,70688
2017-05-29T10:39:27.004Z,75072
2017-05-29T10:40:27.322Z,81984
2017-05-29T10:41:27.071Z,86720
2017-05-29T10:42:27.018Z,93888
2017-05-29T10:43:27.017Z,98720
2017-05-29T10:44:27.342Z,96032
2017-05-29T10:45:27.040Z,94208
2017-05-29T10:46:27.091Z,91360
2017-05-29T10:47:27.040Z,82112
2017-05-29T10:48:27.052Z,77184
2017-05-29T10:49:26.428Z,70592
2017-05-29T10:50:27.065Z,63648
2017-05-29T10:51:27.120Z,56992
2017-05-29T10:52:26.759Z,55840
2017-05-29T10:53:27.075Z,60992
2017-05-29T10:54:26.768Z,63232
2017-05-29T10:55:27.401Z,68320
2017-05-29T10:56:26.782Z,71232
2017-05-29T10:57:27.100Z,86080
2017-05-29T10:58:27.422Z,95200
2017-05-29T10:59:26.794Z,95264
2017-05-29T11:00:27.433Z,91200
2017-05-29T11:01:27.438Z,80448
2017-05-29T11:02:27.127Z,72384
2017-05-29T11:03:26.835Z,49504
2017-05-29T11:04:27.455Z,52512
2017-05-29T11:05:27.144Z,57216
2017-05-29T11:06:27.146Z,63296
2017-05-29T11:07:27.154Z,69024
2017-05-29T11:08:27.169Z,70080
2017-05-29T11:09:26.853Z,68768
2017-05-29T11:10:27.482Z,62784
2017-05-29T11:11:27.180Z,57120
2017-05-29T11:12:27.192Z,53856
2017-05-29T11:13:27.187Z,50176
2017-05-29T11:14:27.513Z,51872
2017-05-29T11:15:27.199Z,57248
2017-05-29T11:16:27.264Z,66720
2017-05-29T11:17:26.921Z,67456
2017-05-29T11:18:26.907Z,66304
2017-05-29T11:19:26.598Z,68160
2017-05-29T11:20:27.228Z,66496
2017-05-29T11:21:27.241Z,63584
2017-05-29T11:22:27.245Z,62752
2017-05-29T11:23:27.558Z,61440
2017-05-29T11:24:26.932Z,63328
2017-05-29T11:25:27.259Z,65248
2017-05-29T11:26:27.576Z,70144
2017-05-29T11:27:27.269Z,73216
2017-05-29T11:28:27.273Z,78272
2017-05-29T11:29:26.963Z,82048
2017-05-29T11:30:27.287Z,85216
2017-05-29T11:31:27.600Z,84544
2017-05-29T11:32:27.610Z,87264
2017-05-29T11:33:26.989Z,83072
2017-05-29T11:34:27.307Z,79904
2017-05-29T11:35:27.312Z,75328
2017-05-29T11:36:27.032Z,70464
2017-05-29T11:37:27.332Z,64320
2017-05-29T11:38:27.341Z,62432
2017-05-29T11:39:27.330Z,63776
2017-05-29T11:40:27.342Z,63392
2017-05-29T11:41:27.664Z,73952
2017-05-29T11:42:26.719Z,77664
2017-05-29T11:43:27.672Z,82048
2017-05-29T11:44:27.680Z,87808
2017-05-29T11:45:27.367Z,91488
2017-05-29T11:46:27.373Z,86176
2017-05-29T11:47:26.759Z,74976
2017-05-29T11:48:27.072Z,59136
2017-05-29T11:49:27.082Z,49664
2017-05-29T11:50:27.091Z,38432
2017-05-29T11:51:26.783Z,36576
2017-05-29T11:52:27.418Z,37376
2017-05-29T11:53:26.785Z,37440
2017-05-29T11:54:27.744Z,43616
2017-05-29T11:55:26.801Z,50784
2017-05-29T11:56:27.123Z,64672
2017-05-29T11:57:27.129Z,67232
2017-05-29T11:58:27.446Z,74368
2017-05-29T11:59:27.450Z,75712
2017-05-29T12:00:27.462Z,73696
2017-05-29T12:01:27.156Z,66016
2017-05-29T12:02:27.783Z,55424
2017-05-29T12:03:27.485Z,47808
2017-05-29T12:04:27.794Z,44480
2017-05-29T12:05:27.798Z,47392
2017-05-29T12:06:27.488Z,52224
2017-05-29T12:07:26.863Z,56992
2017-05-29T12:08:27.502Z,59936
2017-05-29T12:09:27.201Z,64192
2017-05-29T12:10:27.509Z,68640
2017-05-29T12:11:27.088Z,65152
2017-05-29T12:12:27.212Z,63488
2017-05-29T12:13:27.528Z,60960
2017-05-29T12:14:27.533Z,55776
2017-05-29T12:15:27.844Z,48544
2017-05-29T12:16:27.226Z,46176
2017-05-29T12:17:27.857Z,49760
2017-05-29T12:18:27.550Z,59136
2017-05-29T12:19:26.926Z,61312
2017-05-29T12:20:27.254Z,64640
2017-05-29T12:21:27.567Z,72928
2017-05-29T12:22:27.571Z,71840
2017-05-29T12:23:27.571Z,72928
2017-05-29T12:24:27.898Z,65632
2017-05-29T12:25:27.584Z,63040
2017-05-29T12:26:27.597Z,61088
2017-05-29T12:27:27.915Z,59328
2017-05-29T12:28:27.285Z,57184
2017-05-29T12:29:27.602Z,61056
2017-05-29T12:30:27.293Z,63200
2017-05-29T12:31:27.931Z,61152
2017-05-29T12:32:27.623Z,60736
2017-05-29T12:33:27.626Z,59552
2017-05-29T12:34:27.631Z,59264
2017-05-29T12:35:27.008Z,60864
2017-05-29T12:36:27.956Z,65152
2017-05-29T12:37:27.015Z,66560
2017-05-29T12:38:27.645Z,68160
2017-05-29T12:39:27.658Z,69088
2017-05-29T12:40:27.662Z,65344
2017-05-29T12:41:27.351Z,61984
2017-05-29T12:42:27.409Z,58464
2017-05-29T12:43:27.675Z,55040
2017-05-29T12:44:27.989Z,52864
2017-05-29T12:45:27.682Z,51584
2017-05-29T12:46:27.689Z,53024
2017-05-29T12:47:28.014Z,58720
2017-05-29T12:48:27.382Z,67552
2017-05-29T12:49:27.393Z,75552
2017-05-29T12:50:27.712Z,79616
2017-05-29T12:51:27.718Z,82272
2017-05-29T12:52:27.728Z,84384
2017-05-29T12:53:28.039Z,80640
2017-05-29T12:54:27.422Z,73472
2017-05-29T12:55:27.738Z,67872
2017-05-29T12:56:27.739Z,65856
2017-05-29T12:57:27.755Z,66240
2017-05-29T12:58:28.076Z,68640
2017-05-29T12:59:27.764Z,72576
2017-05-29T13:00:27.460Z,81344
2017-05-29T13:01:27.146Z,88768
2017-05-29T13:02:27.783Z,93248
2017-05-29T13:03:28.094Z,96704
2017-05-29T13:04:27.788Z,95680
2017-05-29T13:05:27.479Z,93824
2017-05-29T13:06:27.800Z,91968
2017-05-29T13:07:27.808Z,85408
2017-05-29T13:08:27.497Z,83168
2017-05-29T13:09:27.510Z,78432
2017-05-29T13:10:27.823Z,76864
2017-05-29T13:11:28.140Z,64672
2017-05-29T13:12:27.886Z,23456
2017-05-29T13:13:28.154Z,25856
2017-05-29T13:14:28.157Z,85504
2017-05-29T13:15:27.536Z,93856
2017-05-29T13:16:27.862Z,97696
2017-05-29T13:17:27.861Z,100096
2017-05-29T13:18:27.555Z,100800
2017-05-29T13:19:28.199Z,97984
2017-05-29T13:20:27.872Z,96128
2017-05-29T13:21:27.571Z,97056
2017-05-29T13:22:27.887Z,95200
2017-05-29T13:23:27.895Z,95168
2017-05-29T13:24:27.586Z,98432
2017-05-29T13:25:27.595Z,102176
2017-05-29T13:26:27.283Z,102496
2017-05-29T13:27:27.921Z,105824